Atlanta, Georgia
Traffic Map
Current Weather Conditions
Atlanta, Georgia
Broken Clouds
Broken Clouds
67°
Feels Like: 67°
Wind Chill: 67° Ceiling: 400
Heat Index: 67° Visibility: 7mi
Dew Point: 65° Wind: 3mph
Humidity: 93% Direction: 110° (ESE)
Pressure: 30.17in Gusts: 0mph
Raw Report DataKATL 290952Z 11003KT 7SM BKN004 BKN250 19/18 A3017 RMK AO2 SLP210 CIG 003V006 T01940183
Traffic Incident Summary
Active as of:
Severity:
Category:
InformationThere was an issue retrieving the traffic information for this location. Please try a different location or try again shortly.
Advertisements
Track Severe Weather on mobile